Time;durP1;ratioP1;P1;durP2;ratioP2;P2;SDS_P1;SDS_P2;PMS_P1;PMS_P2;Temp;Humidity;BMP_temperature;BMP_pressure;BME280_temperature;BME280_humidity;BME280_pressure;Samples;Min_cycle;Max_cycle;Signal;HPM_P1;HPM_P2
2023/02/23 00:01:40;;;;;;;25.25;12.75;;;6.40;99.90;;;;;;5095855;28;20127;-64
2023/02/23 00:04:07;;;;;;;22.27;13.05;;;6.40;99.90;;;;;;5095953;28;20028;-64
2023/02/23 00:06:37;;;;;;;24.70;14.20;;;6.50;99.90;;;;;;5097042;27;20047;-62
2023/02/23 00:11:55;;;;;;;24.02;13.02;;;6.50;99.90;;;;;;5094777;28;20040;-64
2023/02/23 00:14:26;;;;;;;26.23;14.30;;;6.60;99.90;;;;;;5098700;28;20038;-64
2023/02/23 00:16:52;;;;;;;26.00;13.68;;;6.70;99.90;;;;;;5093472;28;20803;-64
2023/02/23 00:19:18;;;;;;;21.90;13.05;;;6.70;99.90;;;;;;5086888;28;20730;-62
2023/02/23 00:21:45;;;;;;;22.45;12.88;;;6.70;99.90;;;;;;5081644;28;20120;-62
2023/02/23 00:24:14;;;;;;;23.98;13.38;;;6.70;99.90;;;;;;5084988;28;20035;-64
2023/02/23 00:26:44;;;;;;;23.08;12.70;;;6.70;99.90;;;;;;5080825;28;20076;-63
2023/02/23 00:29:17;;;;;;;28.88;14.27;;;6.60;99.90;;;;;;5087066;28;20044;-64
2023/02/23 00:31:44;;;;;;;25.58;13.32;;;6.70;99.90;;;;;;5078505;28;20109;-64
2023/02/23 00:34:12;;;;;;;25.83;13.80;;;6.70;99.90;;;;;;5087999;28;20040;-64
2023/02/23 00:36:37;;;;;;;24.15;13.73;;;6.80;99.90;;;;;;5081347;28;20128;-66
2023/02/23 00:39:20;;;;;;;21.63;12.27;;;6.80;99.90;;;;;;5086068;28;20450;-66
2023/02/23 00:41:51;;;;;;;26.98;13.82;;;6.80;99.90;;;;;;5098482;27;20036;-64
2023/02/23 00:44:17;;;;;;;18.70;11.48;;;6.80;99.90;;;;;;5085035;28;20443;-64
2023/02/23 00:46:44;;;;;;;20.83;12.40;;;6.80;99.90;;;;;;5080026;28;20038;-65
2023/02/23 00:49:13;;;;;;;24.00;11.57;;;6.70;99.90;;;;;;5083740;28;20036;-64
2023/02/23 00:51:39;;;;;;;22.63;12.13;;;6.70;99.90;;;;;;5080013;28;20044;-63
2023/02/23 00:54:05;;;;;;;21.40;12.40;;;6.70;99.90;;;;;;5084169;28;20043;-64
2023/02/23 00:56:31;;;;;;;22.42;12.00;;;6.70;99.90;;;;;;5080091;28;20044;-62
2023/02/23 00:58:57;;;;;;;24.83;12.60;;;6.80;99.90;;;;;;5083853;28;20075;-63
2023/02/23 01:01:23;;;;;;;;;;;6.80;99.90;;;;;;5083341;28;20090;-65
2023/02/23 01:03:49;;;;;;;25.55;12.23;;;6.80;99.90;;;;;;5084185;28;19915;-63
2023/02/23 01:06:16;;;;;;;25.48;12.80;;;6.80;99.90;;;;;;5081363;28;20561;-63
2023/02/23 01:08:43;;;;;;;24.40;13.25;;;6.80;99.90;;;;;;5083876;28;20051;-63
2023/02/23 01:11:15;;;;;;;22.50;11.70;;;6.80;99.90;;;;;;5085290;28;20050;-62
2023/02/23 01:13:43;;;;;;;23.35;11.93;;;6.80;99.90;;;;;;5080521;28;20165;-64
2023/02/23 01:16:12;;;;;;;25.90;12.80;;;6.80;99.90;;;;;;5081468;28;20039;-62
2023/02/23 01:18:39;;;;;;;26.45;12.75;;;6.80;99.90;;;;;;5082935;28;20036;-64
2023/02/23 01:21:17;;;;;;;23.98;12.70;;;6.80;99.90;;;;;;5066079;28;20078;-64
2023/02/23 01:23:43;;;;;;;23.48;12.82;;;6.80;99.90;;;;;;5081640;28;20107;-64
2023/02/23 01:26:20;;;;;;;20.73;11.60;;;6.90;99.90;;;;;;5082849;28;20071;-62
2023/02/23 01:28:53;;;;;;;26.52;14.30;;;6.90;99.90;;;;;;5082641;28;20055;-62
2023/02/23 01:31:22;;;;;;;28.52;14.80;;;6.80;99.90;;;;;;5081712;28;20036;-66
2023/02/23 01:33:53;;;;;;;29.15;14.30;;;6.80;99.90;;;;;;5083360;28;20047;-65
2023/02/23 01:36:19;;;;;;;23.67;12.52;;;6.90;99.90;;;;;;5083202;28;20051;-65
2023/02/23 01:38:44;;;;;;;;;;;6.90;99.90;;;;;;5083516;28;20678;-64
2023/02/23 01:41:10;;;;;;;22.77;12.13;;;7.00;99.90;;;;;;5076333;28;19917;-62
2023/02/23 01:43:54;;;;;;;;;;;6.90;99.90;;;;;;5083241;28;20036;-62
2023/02/23 01:46:19;;;;;;;25.73;11.02;;;7.00;99.90;;;;;;5081973;28;19927;-62
2023/02/23 01:48:47;;;;;;;20.30;11.35;;;7.00;99.90;;;;;;5078277;28;20036;-64
2023/02/23 01:51:17;;;;;;;30.55;13.00;;;7.00;99.90;;;;;;5080909;28;20496;-65
2023/02/23 01:53:53;;;;;;;20.55;11.85;;;7.00;99.90;;;;;;5083154;28;20043;-65
2023/02/23 01:56:24;;;;;;;21.15;11.38;;;7.00;99.90;;;;;;5080960;28;20044;-63
2023/02/23 01:58:53;;;;;;;30.52;13.57;;;7.10;99.90;;;;;;5083345;28;20044;-65
2023/02/23 02:01:20;;;;;;;24.55;12.40;;;7.10;99.90;;;;;;5082925;28;20044;-65
2023/02/23 02:03:52;;;;;;;22.25;12.65;;;7.20;99.90;;;;;;5080385;28;20036;-64
2023/02/23 02:06:22;;;;;;;26.63;12.02;;;7.10;99.90;;;;;;5077169;28;20052;-65
2023/02/23 02:08:53;;;;;;;17.70;9.95;;;7.20;99.90;;;;;;5081774;28;20545;-62
2023/02/23 02:11:29;;;;;;;21.38;11.85;;;7.20;99.90;;;;;;5082456;28;20656;-62
2023/02/23 02:14:26;;;;;;;47.53;12.77;;;7.20;99.90;;;;;;5081333;28;20036;-62
2023/02/23 02:17:25;;;;;;;16.58;9.40;;;7.20;99.90;;;;;;5079404;28;20043;-64
2023/02/23 02:20:13;;;;;;;26.48;12.98;;;7.20;99.90;;;;;;5083828;28;20404;-64
2023/02/23 02:23:26;;;;;;;28.83;14.23;;;7.10;99.90;;;;;;5082247;28;20039;-66
2023/02/23 02:26:20;;;;;;;35.67;15.90;;;7.20;99.90;;;;;;5080176;28;20539;-66
2023/02/23 02:29:04;;;;;;;27.42;14.40;;;7.30;99.90;;;;;;5081372;28;20044;-64
2023/02/23 02:31:55;;;;;;;23.35;12.48;;;7.20;99.90;;;;;;5079989;28;20513;-64
2023/02/23 02:34:45;;;;;;;22.08;11.07;;;7.30;99.90;;;;;;5074728;28;20046;-64
2023/02/23 02:37:32;;;;;;;20.98;11.30;;;7.30;99.90;;;;;;5079490;28;20551;-63
2023/02/23 02:40:15;;;;;;;37.05;13.95;;;7.20;99.90;;;;;;5082597;28;20067;-66
2023/02/23 02:43:23;;;;;;;27.38;12.63;;;7.30;99.90;;;;;;5081424;28;20555;-64
2023/02/23 02:45:55;;;;;;;25.42;12.82;;;7.20;99.90;;;;;;5059388;28;20060;-64
2023/02/23 02:48:29;;;;;;;23.20;13.45;;;7.10;99.90;;;;;;5084714;28;20067;-65
2023/02/23 02:51:21;;;;;;;28.30;15.57;;;7.10;99.90;;;;;;5080695;28;20119;-64
2023/02/23 02:54:09;;;;;;;35.13;16.92;;;7.20;99.90;;;;;;5082702;28;20043;-63
2023/02/23 02:56:39;;;;;;;27.73;15.68;;;7.20;99.90;;;;;;5079401;28;20118;-63
2023/02/23 04:18:10;;;;;;;42.50;21.33;;;7.60;99.90;;;;;;5075654;28;20752;-65
2023/02/23 04:20:35;;;;;;;29.25;15.57;;;7.60;99.90;;;;;;5085297;28;20137;-63
2023/02/23 04:23:01;;;;;;;;;;;7.60;99.90;;;;;;5085241;28;20583;-63
2023/02/23 04:25:28;;;;;;;32.05;14.85;;;7.60;99.90;;;;;;5086810;28;19965;-63
2023/02/23 04:27:53;;;;;;;27.73;14.93;;;7.60;99.90;;;;;;5085817;28;20044;-62
2023/02/23 04:30:19;;;;;;;;;;;7.60;99.90;;;;;;5083649;28;20070;-64
2023/02/23 04:32:45;;;;;;;27.83;15.25;;;7.60;99.90;;;;;;5082920;28;20427;-63
2023/02/23 04:35:12;;;;;;;25.50;14.10;;;7.60;99.90;;;;;;5084853;28;20051;-64
2023/02/23 04:37:38;;;;;;;29.77;15.93;;;7.50;99.90;;;;;;5085230;28;20054;-64
2023/02/23 04:40:05;;;;;;;36.38;16.05;;;7.60;99.90;;;;;;5087394;28;20062;-64
2023/02/23 04:42:30;;;;;;;33.08;16.23;;;7.60;99.90;;;;;;5085253;28;20040;-64
2023/02/23 04:44:56;;;;;;;;;;;7.60;99.90;;;;;;5087097;28;20036;-64
2023/02/23 04:47:22;;;;;;;27.85;15.73;;;7.60;99.90;;;;;;5086225;28;20018;-63
2023/02/23 04:49:47;;;;;;;;;;;7.60;99.90;;;;;;5082789;28;20036;-64
2023/02/23 04:52:13;;;;;;;34.92;17.73;;;7.60;99.90;;;;;;5084842;28;19919;-61
2023/02/23 04:54:39;;;;;;;;;;;7.60;99.90;;;;;;5086002;28;20040;-64
2023/02/23 04:57:05;;;;;;;26.20;15.98;;;7.60;99.90;;;;;;5080499;28;19952;-63
2023/02/23 04:59:31;;;;;;;36.72;19.40;;;7.60;99.90;;;;;;5084819;28;20172;-64
2023/02/23 05:01:56;;;;;;;;;;;7.70;99.90;;;;;;5078748;28;20674;-64
2023/02/23 05:04:22;;;;;;;32.25;16.70;;;7.60;99.90;;;;;;5083326;28;20014;-64
2023/02/23 05:06:48;;;;;;;46.90;19.92;;;7.60;99.90;;;;;;5080389;28;20079;-64
2023/02/23 05:09:13;;;;;;;;;;;7.60;99.90;;;;;;5085589;28;20145;-64
2023/02/23 05:11:39;;;;;;;33.92;18.00;;;7.60;99.90;;;;;;5082557;28;19916;-63
2023/02/23 05:14:04;;;;;;;35.20;18.25;;;7.60;99.90;;;;;;5086298;28;20091;-63
2023/02/23 05:16:30;;;;;;;32.42;17.55;;;7.60;99.90;;;;;;5082246;28;20051;-65
2023/02/23 05:18:56;;;;;;;;;;;7.60;99.90;;;;;;5084931;28;20046;-64
2023/02/23 05:21:22;;;;;;;39.28;18.77;;;7.60;99.90;;;;;;5083904;28;19977;-63
2023/02/23 05:23:47;;;;;;;45.28;21.23;;;7.60;99.90;;;;;;5084703;28;20042;-63
2023/02/23 05:26:13;;;;;;;;;;;7.60;99.90;;;;;;5081782;28;20040;-63
2023/02/23 05:28:41;;;;;;;41.20;18.13;;;7.60;99.90;;;;;;5078908;28;19959;-63
2023/02/23 05:31:07;;;;;;;37.35;18.17;;;7.60;99.90;;;;;;5078091;28;20028;-64
2023/02/23 05:33:33;;;;;;;;;;;7.60;99.90;;;;;;5083592;28;20459;-62
2023/02/23 05:36:02;;;;;;;59.65;26.63;;;7.50;99.90;;;;;;5084044;28;19912;-64
2023/02/23 05:38:28;;;;;;;52.03;26.33;;;7.50;99.90;;;;;;5083508;28;20032;-61
2023/02/23 05:40:54;;;;;;;;;;;7.40;99.90;;;;;;5084980;28;20039;-64
2023/02/23 05:43:20;;;;;;;52.83;20.48;;;7.40;99.90;;;;;;5083903;28;19924;-63
2023/02/23 05:45:45;;;;;;;37.70;17.85;;;7.50;99.90;;;;;;5083338;28;20515;-64
2023/02/23 05:48:11;;;;;;;;;;;7.40;99.90;;;;;;5083925;28;20174;-63
2023/02/23 05:50:37;;;;;;;46.63;20.55;;;7.40;99.90;;;;;;5082163;28;19919;-63
2023/02/23 05:53:03;;;;;;;36.00;17.83;;;7.50;99.90;;;;;;5082126;28;20482;-64
2023/02/23 05:55:29;;;;;;;39.22;17.77;;;7.50;99.90;;;;;;5081778;28;20127;-65
2023/02/23 05:57:54;;;;;;;;;;;7.50;99.90;;;;;;5084334;28;20510;-63
2023/02/23 06:00:21;;;;;;;46.67;23.55;;;7.50;99.90;;;;;;5083648;28;19915;-62
2023/02/23 06:02:46;;;;;;;50.33;25.60;;;7.50;99.90;;;;;;5082763;28;20423;-64
2023/02/23 06:05:12;;;;;;;;;;;7.50;99.90;;;;;;5081602;28;20031;-63
2023/02/23 06:07:38;;;;;;;35.95;18.77;;;7.50;99.90;;;;;;5082717;28;20018;-62
2023/02/23 06:10:04;;;;;;;;;;;7.50;99.90;;;;;;5083403;28;20127;-64
2023/02/23 06:12:30;;;;;;;37.93;17.73;;;7.50;99.90;;;;;;5081983;28;19923;-58
2023/02/23 06:14:56;;;;;;;43.63;20.10;;;7.50;99.90;;;;;;5082427;28;20035;-62
2023/02/23 06:17:22;;;;;;;;;;;7.50;99.90;;;;;;5080393;28;20411;-64
2023/02/23 06:19:47;;;;;;;45.30;22.33;;;7.50;99.90;;;;;;5080681;28;19920;-64
2023/02/23 06:22:14;;;;;;;;;;;7.50;99.90;;;;;;5080567;28;20472;-62
2023/02/23 06:24:40;;;;;;;57.75;24.40;;;7.50;99.90;;;;;;5080426;28;20394;-60
2023/02/23 06:27:06;;;;;;;39.33;21.58;;;7.50;99.90;;;;;;5076950;28;20052;-63
2023/02/23 06:29:31;;;;;;;39.67;18.77;;;7.50;99.90;;;;;;5080847;28;20044;-63
2023/02/23 06:31:57;;;;;;;;;;;7.50;99.90;;;;;;5077921;28;20028;-63
2023/02/23 06:34:23;;;;;;;42.03;19.25;;;7.50;99.90;;;;;;5080408;28;19959;-63
2023/02/23 06:36:48;;;;;;;30.80;17.00;;;7.40;99.90;;;;;;5077784;28;20392;-64
2023/02/23 06:39:14;;;;;;;;;;;7.50;99.90;;;;;;5082670;28;20587;-64
2023/02/23 06:41:39;;;;;;;39.33;19.83;;;7.50;99.90;;;;;;5078110;28;19926;-62
2023/02/23 06:44:05;;;;;;;;;;;7.50;99.90;;;;;;5078658;28;20625;-63
2023/02/23 06:46:32;;;;;;;52.20;23.60;;;7.50;99.90;;;;;;5077250;28;19935;-62
2023/02/23 06:48:58;;;;;;;48.22;21.75;;;7.50;99.90;;;;;;5077560;28;20655;-64
2023/02/23 06:51:24;;;;;;;41.38;20.30;;;7.50;99.90;;;;;;5079266;28;20036;-63
2023/02/23 06:53:54;;;;;;;47.17;21.75;;;7.50;99.90;;;;;;5082433;28;20135;-64
2023/02/23 06:56:19;;;;;;;47.33;21.10;;;7.50;99.90;;;;;;5079417;28;20047;-62
2023/02/23 06:58:45;;;;;;;;;;;7.50;99.90;;;;;;5079312;28;20419;-64
2023/02/23 07:01:14;;;;;;;48.03;24.63;;;7.50;99.90;;;;;;5077844;28;19969;-62
2023/02/23 07:03:40;;;;;;;56.92;26.00;;;7.50;99.90;;;;;;5082243;28;20135;-63
2023/02/23 07:06:06;;;;;;;45.67;21.27;;;7.50;99.90;;;;;;5081222;28;20036;-62
2023/02/23 07:08:32;;;;;;;48.35;19.60;;;7.50;99.90;;;;;;5080944;28;20035;-64
2023/02/23 07:11:13;;;;;;;51.80;23.05;;;7.60;99.90;;;;;;5082752;28;20046;-63
2023/02/23 07:13:39;;;;;;;50.20;23.02;;;7.60;99.90;;;;;;5084856;28;20042;-64
2023/02/23 07:16:05;;;;;;;53.35;24.55;;;7.50;99.90;;;;;;5080919;28;20491;-64
2023/02/23 07:18:31;;;;;;;61.28;25.85;;;7.50;99.90;;;;;;5085881;28;20048;-64
2023/02/23 07:20:57;;;;;;;;;;;7.60;99.90;;;;;;5084439;28;20117;-64
2023/02/23 07:23:22;;;;;;;50.90;22.27;;;7.60;99.90;;;;;;5083568;28;19916;-63
2023/02/23 07:25:52;;;;;;;45.22;21.00;;;7.70;99.90;;;;;;5080160;28;20036;-63
2023/02/23 07:28:20;;;;;;;53.85;22.00;;;7.70;99.90;;;;;;5083246;28;20101;-64
2023/02/23 07:30:45;;;;;;;49.50;22.83;;;7.70;99.90;;;;;;5083973;28;20143;-62
2023/02/23 07:33:11;;;;;;;;;;;7.70;99.90;;;;;;5086553;28;20126;-62
2023/02/23 07:35:36;;;;;;;42.58;21.80;;;7.80;99.90;;;;;;5086740;28;20511;-63
2023/02/23 07:38:03;;;;;;;53.03;22.77;;;7.80;99.90;;;;;;5086631;28;20055;-64
2023/02/23 07:40:28;;;;;;;51.55;23.77;;;7.90;99.90;;;;;;5086054;28;20042;-64
2023/02/23 07:42:54;;;;;;;;;;;7.90;99.90;;;;;;5086467;28;20036;-63
2023/02/23 07:45:20;;;;;;;46.58;20.92;;;7.90;99.90;;;;;;5085495;28;19926;-65
2023/02/23 07:47:45;;;;;;;;;;;8.00;99.90;;;;;;5085038;28;20079;-64
2023/02/23 07:50:13;;;;;;;55.33;23.35;;;8.00;99.90;;;;;;5088187;28;20014;-63
2023/02/23 07:52:40;;;;;;;52.80;23.20;;;8.10;99.90;;;;;;5083818;28;20535;-63
2023/02/23 07:55:07;;;;;;;53.28;25.55;;;8.10;99.90;;;;;;5086787;28;20122;-63
2023/02/23 07:57:33;;;;;;;57.45;24.88;;;8.20;99.90;;;;;;5082655;28;20496;-61
2023/02/23 07:59:59;;;;;;;50.42;24.92;;;8.30;99.90;;;;;;5087509;28;20126;-63
2023/02/23 08:02:27;;;;;;;;;;;8.30;99.90;;;;;;5084152;28;20130;-62
2023/02/23 08:04:53;;;;;;;57.00;25.52;;;8.40;99.90;;;;;;5088412;28;19963;-63
2023/02/23 08:07:19;;;;;;;;;;;8.40;99.90;;;;;;5081271;28;20080;-63
2023/02/23 08:09:46;;;;;;;53.38;25.98;;;8.50;99.90;;;;;;5085301;28;19970;-62
2023/02/23 08:12:14;;;;;;;59.83;26.05;;;8.60;99.90;;;;;;5083703;28;20028;-63
2023/02/23 08:14:40;;;;;;;52.92;25.75;;;8.60;99.90;;;;;;5083419;28;20040;-62
2023/02/23 08:17:05;;;;;;;50.33;24.02;;;8.70;99.90;;;;;;5084221;28;20036;-63
2023/02/23 08:19:31;;;;;;;;;;;8.70;99.90;;;;;;5086250;28;20088;-64
2023/02/23 08:21:57;;;;;;;40.88;20.40;;;8.80;99.90;;;;;;5084554;28;19927;-63
2023/02/23 08:24:23;;;;;;;41.05;20.50;;;8.90;99.90;;;;;;5086104;28;20078;-65
2023/02/23 08:26:49;;;;;;;34.70;17.67;;;8.90;99.90;;;;;;5084457;28;20040;-64
2023/02/23 08:29:15;;;;;;;;;;;8.90;99.90;;;;;;5087692;28;20755;-64
2023/02/23 08:31:40;;;;;;;32.35;16.60;;;8.90;99.90;;;;;;5082465;28;20031;-64
2023/02/23 08:34:06;;;;;;;;;;;8.90;99.90;;;;;;5086357;28;20036;-64
2023/02/23 08:36:32;;;;;;;47.17;25.38;;;8.90;99.90;;;;;;5085942;28;19920;-64
2023/02/23 08:38:59;;;;;;;;;;;8.80;99.90;;;;;;5082091;28;20067;-63
2023/02/23 08:41:26;;;;;;;61.63;32.05;;;8.80;99.90;;;;;;5081922;28;19927;-64
2023/02/23 08:43:52;;;;;;;61.05;31.88;;;8.80;99.90;;;;;;5085150;28;20078;-64
2023/02/23 08:46:19;;;;;;;66.13;33.45;;;8.80;99.90;;;;;;5081825;28;20036;-65
2023/02/23 08:48:45;;;;;;;59.22;31.13;;;8.70;99.90;;;;;;5083575;28;20425;-63
2023/02/23 08:51:11;;;;;;;63.28;31.85;;;8.80;99.90;;;;;;5084651;28;20035;-64
2023/02/23 08:53:37;;;;;;;60.05;27.90;;;8.80;99.90;;;;;;5079482;28;20036;-64
2023/02/23 08:56:04;;;;;;;;;;;8.80;99.90;;;;;;5083386;28;20405;-64
2023/02/23 08:58:31;;;;;;;40.85;21.42;;;8.90;99.90;;;;;;5079905;28;19920;-64
2023/02/23 09:00:57;;;;;;;41.38;22.35;;;8.90;99.90;;;;;;5081036;28;20116;-64
2023/02/23 09:03:25;;;;;;;;;;;8.90;99.90;;;;;;5083418;28;20120;-63
2023/02/23 09:05:51;;;;;;;37.92;20.73;;;9.00;99.90;;;;;;5084293;28;19924;-64
2023/02/23 09:08:17;;;;;;;42.20;21.30;;;9.00;99.90;;;;;;5082001;28;20039;-65
2023/02/23 09:10:43;;;;;;;;;;;9.00;99.90;;;;;;5083246;28;20403;-64
2023/02/23 09:13:10;;;;;;;25.77;13.25;;;8.90;99.90;;;;;;5085388;28;19924;-68
2023/02/23 09:15:39;;;;;;;25.35;13.88;;;8.90;99.90;;;;;;5083147;28;20032;-62
2023/02/23 09:18:07;;;;;;;25.08;13.55;;;8.80;99.90;;;;;;5079438;28;20040;-61
2023/02/23 09:20:33;;;;;;;15.13;7.70;;;8.80;99.90;;;;;;5084810;28;20032;-64
2023/02/23 09:22:58;;;;;;;;;;;8.80;99.90;;;;;;5082625;28;20535;-63
2023/02/23 09:25:24;;;;;;;10.98;5.95;;;8.80;99.90;;;;;;5084053;28;19920;-64
2023/02/23 09:27:51;;;;;;;;;;;8.80;99.90;;;;;;5081357;28;20044;-64
2023/02/23 09:30:19;;;;;;;8.65;4.97;;;8.80;99.90;;;;;;5083610;28;19969;-65
2023/02/23 09:32:46;;;;;;;8.02;5.18;;;8.80;99.90;;;;;;5078787;28;20068;-68
2023/02/23 09:35:16;;;;;;;10.07;4.75;;;8.90;99.90;;;;;;5080140;28;20047;-66
2023/02/23 09:37:53;;;;;;;11.93;4.93;;;9.00;99.90;;;;;;5076963;28;20047;-67
2023/02/23 09:40:26;;;;;;;7.38;4.68;;;9.00;99.90;;;;;;5080562;28;20924;-65
2023/02/23 09:43:10;;;;;;;8.15;4.60;;;9.00;99.90;;;;;;5083069;28;20040;-66
2023/02/23 09:45:47;;;;;;;9.18;4.72;;;9.10;99.90;;;;;;5080371;28;20043;-66
2023/02/23 09:48:17;;;;;;;7.75;4.32;;;9.10;99.90;;;;;;5081605;28;21013;-63
2023/02/23 09:50:50;;;;;;;7.85;4.53;;;9.10;99.90;;;;;;5079802;28;20096;-65
2023/02/23 09:53:28;;;;;;;5.85;4.10;;;9.10;99.90;;;;;;5081257;28;20166;-65
2023/02/23 09:55:57;;;;;;;6.78;4.32;;;9.10;99.90;;;;;;5079370;28;20090;-64
2023/02/23 09:58:29;;;;;;;6.55;3.90;;;9.20;99.90;;;;;;5084367;28;20048;-64
2023/02/23 10:01:13;;;;;;;7.57;4.10;;;9.30;99.90;;;;;;5081815;28;20040;-64
2023/02/23 10:04:12;;;;;;;7.00;4.43;;;9.20;99.90;;;;;;5081378;28;20063;-64
2023/02/23 10:06:43;;;;;;;9.40;4.18;;;9.40;99.90;;;;;;5077886;28;20044;-64
2023/02/23 10:09:30;;;;;;;5.88;3.92;;;9.40;99.90;;;;;;5077269;28;20043;-65
2023/02/23 10:11:56;;;;;;;;;;;9.40;99.90;;;;;;5077329;28;20035;-65
2023/02/23 10:14:43;;;;;;;7.07;4.38;;;9.50;99.90;;;;;;5085186;28;19919;-66
2023/02/23 10:17:38;;;;;;;6.75;4.00;;;9.50;99.90;;;;;;5079233;28;20035;-64
2023/02/23 10:20:22;;;;;;;7.88;4.70;;;9.50;99.90;;;;;;5077814;28;20139;-64
2023/02/23 10:22:49;;;;;;;9.70;5.22;;;9.30;99.90;;;;;;5078918;28;20035;-65
2023/02/23 10:25:22;;;;;;;7.53;4.20;;;9.20;99.90;;;;;;5078464;28;20131;-65
2023/02/23 10:27:49;;;;;;;7.57;4.53;;;9.10;99.90;;;;;;5078558;28;20039;-65
2023/02/23 10:30:26;;;;;;;7.00;5.40;;;9.20;99.90;;;;;;5081189;28;20142;-64
2023/02/23 10:32:58;;;;;;;6.65;4.93;;;9.10;99.90;;;;;;5078816;28;20042;-66
2023/02/23 10:35:28;;;;;;;6.70;4.40;;;9.10;99.90;;;;;;5078779;28;20451;-66
2023/02/23 10:37:54;;;;;;;6.97;4.95;;;9.00;99.90;;;;;;5079777;28;20530;-64
2023/02/23 10:40:22;;;;;;;;;;;8.90;99.90;;;;;;5083239;28;20047;-64
2023/02/23 10:42:48;;;;;;;6.10;4.70;;;8.90;99.90;;;;;;5095912;27;19923;-68
2023/02/23 10:45:21;;;;;;;5.75;4.30;;;9.00;99.90;;;;;;5083190;28;20032;-67
2023/02/23 10:47:50;;;;;;;6.00;4.07;;;9.00;99.90;;;;;;5078217;28;20135;-63
2023/02/23 10:50:17;;;;;;;7.07;5.03;;;8.90;99.90;;;;;;5082483;28;20089;-65
2023/02/23 10:52:49;;;;;;;8.10;5.10;;;8.70;99.90;;;;;;5080394;28;20146;-65
2023/02/23 10:55:28;;;;;;;5.97;4.60;;;8.70;99.90;;;;;;5078099;28;20050;-65
2023/02/23 10:58:17;;;;;;;9.63;4.80;;;8.60;99.90;;;;;;5080261;28;20043;-66
2023/02/23 11:01:03;;;;;;;5.60;4.30;;;8.60;99.90;;;;;;5077370;28;20050;-64
2023/02/23 11:03:38;;;;;;;6.40;4.93;;;8.70;99.90;;;;;;5076993;28;20043;-63
2023/02/23 11:06:04;;;;;;;7.07;4.47;;;8.70;99.90;;;;;;5080661;28;20056;-65
2023/02/23 11:08:36;;;;;;;;;;;8.60;99.90;;;;;;5082603;28;20046;-64
2023/02/23 11:11:14;;;;;;;8.15;6.00;;;8.70;99.90;;;;;;5081256;28;20348;-64
2023/02/23 11:13:45;;;;;;;6.32;5.00;;;8.60;99.90;;;;;;5080715;28;20036;-63
2023/02/23 11:16:17;;;;;;;7.30;5.00;;;8.50;99.90;;;;;;5080219;28;20058;-62
2023/02/23 11:19:03;;;;;;;6.55;4.75;;;8.60;99.90;;;;;;5078154;28;20041;-64
2023/02/23 11:21:38;;;;;;;5.55;4.38;;;8.60;99.90;;;;;;5074799;28;20037;-64
2023/02/23 11:24:23;;;;;;;6.25;4.95;;;8.60;99.90;;;;;;5081820;28;20530;-64
2023/02/23 11:26:52;;;;;;;6.25;5.03;;;8.50;99.90;;;;;;5077299;28;20037;-64
2023/02/23 11:29:32;;;;;;;6.65;4.97;;;8.50;99.90;;;;;;5081819;28;20044;-62
2023/02/23 11:31:59;;;;;;;6.72;5.18;;;8.50;99.90;;;;;;5074764;28;20028;-64
2023/02/23 11:34:39;;;;;;;6.78;5.18;;;8.50;99.90;;;;;;5081181;28;20047;-65
2023/02/23 11:37:29;;;;;;;7.40;5.50;;;8.50;99.90;;;;;;5079378;28;20342;-64
2023/02/23 11:40:01;;;;;;;9.10;6.22;;;8.60;99.90;;;;;;5083954;28;20036;-63
2023/02/23 11:42:34;;;;;;;9.77;7.13;;;8.60;99.90;;;;;;5082331;28;20571;-64
2023/02/23 11:45:04;;;;;;;8.68;6.47;;;8.50;99.90;;;;;;5081434;28;20039;-67
2023/02/23 11:47:38;;;;;;;8.63;6.03;;;8.70;99.90;;;;;;5078131;28;20048;-64
2023/02/23 11:50:05;;;;;;;9.93;6.15;;;8.70;99.90;;;;;;5081911;28;20094;-63
2023/02/23 11:52:31;;;;;;;10.15;7.10;;;8.90;99.90;;;;;;5077524;28;20068;-64
2023/02/23 11:55:01;;;;;;;9.43;6.88;;;8.90;99.90;;;;;;5077259;28;20078;-64
2023/02/23 11:57:32;;;;;;;9.02;6.55;;;8.80;99.90;;;;;;5080322;28;20048;-66
2023/02/23 12:00:03;;;;;;;9.25;6.88;;;9.00;99.90;;;;;;5078533;28;20044;-64
2023/02/23 12:02:30;;;;;;;9.85;7.00;;;9.00;99.90;;;;;;5077154;28;20047;-64
2023/02/23 12:05:05;;;;;;;10.38;7.47;;;9.00;99.90;;;;;;5078511;28;20036;-64
2023/02/23 12:07:53;;;;;;;10.80;7.25;;;9.00;99.90;;;;;;5078357;28;20506;-64
2023/02/23 12:10:41;;;;;;;10.18;7.35;;;8.80;99.90;;;;;;5077674;28;20040;-65
2023/02/23 12:13:06;;;;;;;13.60;7.22;;;8.90;99.90;;;;;;5081825;28;20496;-63
2023/02/23 12:15:35;;;;;;;;;;;8.80;99.90;;;;;;5080232;28;20039;-64
2023/02/23 12:18:21;;;;;;;11.43;7.45;;;8.80;99.90;;;;;;5084722;28;19941;-64
2023/02/23 12:20:49;;;;;;;11.95;7.53;;;8.80;99.90;;;;;;5081172;28;20550;-65
2023/02/23 12:23:23;;;;;;;14.52;8.50;;;8.80;99.90;;;;;;5083950;28;20078;-63
2023/02/23 12:26:01;;;;;;;12.73;8.68;;;8.80;99.90;;;;;;5082362;28;20122;-64
2023/02/23 12:28:37;;;;;;;12.90;8.50;;;8.80;99.90;;;;;;5085235;28;20124;-64
2023/02/23 12:31:25;;;;;;;16.25;10.45;;;8.90;99.90;;;;;;5079970;28;20036;-64
2023/02/23 12:33:57;;;;;;;16.92;10.55;;;8.70;99.90;;;;;;5083498;28;20393;-63
2023/02/23 12:37:06;;;;;;;19.95;12.18;;;8.50;99.90;;;;;;5083525;28;20044;-64
2023/02/23 12:39:37;;;;;;;19.27;12.68;;;8.40;99.90;;;;;;5090006;28;20415;-62
2023/02/23 12:42:24;;;;;;;22.88;13.90;;;8.50;99.90;;;;;;5080805;28;20039;-63
2023/02/23 12:44:57;;;;;;;22.02;13.18;;;8.30;99.90;;;;;;5085726;28;20185;-63
2023/02/23 12:47:50;;;;;;;20.10;12.35;;;8.30;99.90;;;;;;5083715;28;20073;-62
2023/02/23 12:50:32;;;;;;;21.80;13.10;;;8.30;99.90;;;;;;5085255;28;20109;-63
2023/02/23 12:53:11;;;;;;;21.77;12.73;;;8.40;99.90;;;;;;5082187;28;20039;-63
2023/02/23 12:56:03;;;;;;;22.50;13.30;;;8.40;99.90;;;;;;5081955;28;20038;-62
2023/02/23 12:58:37;;;;;;;25.92;13.52;;;8.50;99.90;;;;;;5080071;28;20044;-63
2023/02/23 13:01:23;;;;;;;26.90;13.75;;;8.30;99.90;;;;;;5081651;28;20028;-64
2023/02/23 13:04:03;;;;;;;23.75;13.05;;;8.40;99.90;;;;;;5083513;28;20040;-62
2023/02/23 13:06:49;;;;;;;23.13;12.32;;;8.40;99.90;;;;;;5078714;28;20052;-62
2023/02/23 13:09:53;;;;;;;19.85;11.82;;;8.30;99.90;;;;;;5082341;28;20032;-62
2023/02/23 13:12:50;;;;;;;19.33;11.63;;;8.20;99.90;;;;;;5059115;28;20492;-64
2023/02/23 13:15:19;;;;;;;;;;;8.20;99.90;;;;;;5076221;28;20086;-62
2023/02/23 13:17:58;;;;;;;22.85;12.60;;;8.30;99.90;;;;;;5080977;28;19947;-63
2023/02/23 13:20:53;;;;;;;26.48;13.80;;;8.30;99.90;;;;;;5065263;28;20043;-63
2023/02/23 13:23:32;;;;;;;24.80;13.55;;;8.30;99.90;;;;;;5083058;28;20090;-62
2023/02/23 13:26:16;;;;;;;22.85;12.85;;;8.20;99.90;;;;;;5081693;28;20036;-63
2023/02/23 13:29:10;;;;;;;22.85;13.25;;;8.20;99.90;;;;;;5083208;28;20040;-63
2023/02/23 13:31:39;;;;;;;25.05;13.20;;;8.20;99.90;;;;;;5056555;28;20492;-63
2023/02/23 13:34:10;;;;;;;21.90;13.10;;;8.20;99.90;;;;;;5083611;28;20044;-64
2023/02/23 13:36:37;;;;;;;27.25;14.25;;;8.10;99.90;;;;;;5084412;28;20050;-63
2023/02/23 13:39:44;;;;;;;19.98;11.23;;;8.00;99.90;;;;;;5087276;28;20113;-64
2023/02/23 13:42:34;;;;;;;18.35;10.63;;;8.00;99.90;;;;;;5083476;28;20044;-62
2023/02/23 13:45:29;;;;;;;22.60;11.82;;;7.90;99.90;;;;;;5087056;28;20036;-62
2023/02/23 13:47:55;;;;;;;18.92;11.23;;;;;;;;;;5068589;28;20661;-63
2023/02/23 13:50:39;;;;;;;18.55;10.18;;;;;;;;;;5082832;28;20044;-62
2023/02/23 13:53:06;;;;;;;18.50;9.90;;;;;;;;;;5081137;28;20071;-62
2023/02/23 13:55:37;;;;;;;16.75;9.73;;;;;;;;;;5080051;28;20452;-63
2023/02/23 13:58:12;;;;;;;16.40;9.43;;;;;;;;;;5083255;28;20135;-61
2023/02/23 14:00:38;;;;;;;17.63;9.07;;;;;;;;;;5083272;28;20116;-62
2023/02/23 14:03:04;;;;;;;;;;;;;;;;;;5085551;28;20489;-63
2023/02/23 14:05:30;;;;;;;17.02;9.05;;;;;;;;;;5088364;28;20004;-62
2023/02/23 14:08:01;;;;;;;13.95;8.45;;;;;;;;;;5082104;28;20036;-63
2023/02/23 14:10:40;;;;;;;13.63;7.85;;;;;;;;;;5083631;28;20248;-62
2023/02/23 14:13:12;;;;;;;13.45;6.95;;;;;;;;;;5084258;28;20040;-62
2023/02/23 14:15:39;;;;;;;9.15;6.20;;;;;;;;;;5082207;28;20072;-62
2023/02/23 14:18:17;;;;;;;11.38;6.90;;;;;;;;;;5086216;28;20138;-63
2023/02/23 14:20:43;;;;;;;11.75;6.82;;;;;;;;;;5081445;28;20036;-64
2023/02/23 14:23:09;;;;;;;;;;;;;;;;;;5082912;28;20047;-64
2023/02/23 14:25:35;;;;;;;10.65;5.88;;;;;;;;;;5087793;28;19981;-63
2023/02/23 14:28:05;;;;;;;10.95;5.80;;;;;;;;;;5082001;28;20661;-64
2023/02/23 14:30:58;;;;;;;13.15;6.80;;;;;;;;;;5082292;28;20050;-61
2023/02/23 14:33:54;;;;;;;10.43;6.28;;;;;;;;;;5082804;28;20163;-65
2023/02/23 14:36:23;;;;;;;12.18;6.30;;;;;;;;;;5068553;28;20044;-65
2023/02/23 14:39:07;;;;;;;11.00;6.38;;;;;;;;;;5079880;28;20594;-62
2023/02/23 14:41:33;;;;;;;13.65;7.05;;;;;;;;;;5080617;28;20039;-64
2023/02/23 14:44:04;;;;;;;;;;;;;;;;;;5080202;28;20047;-64
2023/02/23 14:46:30;;;;;;;19.88;9.95;;;;;;;;;;5077349;28;20464;-62
2023/02/23 14:49:19;;;;;;;22.42;11.75;;;;;;;;;;5079980;28;20388;-64